Time;durP1;ratioP1;P1;durP2;ratioP2;P2;SDS_P1;SDS_P2;PMS_P1;PMS_P2;Temp;Humidity;BMP_temperature;BMP_pressure;BME280_temperature;BME280_humidity;BME280_pressure;Samples;Min_cycle;Max_cycle;Signal;HPM_P1;HPM_P2
2022/08/13 00:02:10;;;;;;;9.63;8.53;;;;;;;22.03;52.78;101337.67;1610506;88;21390;-78
2022/08/13 00:04:41;;;;;;;16.60;9.83;;;;;;;22.04;52.81;101340.69;1615061;86;20953;-78
2022/08/13 00:07:09;;;;;;;12.13;8.93;;;;;;;22.03;52.90;101342.94;1623619;86;21484;-78
2022/08/13 00:09:41;;;;;;;13.85;9.15;;;;;;;22.03;52.96;101331.09;1621827;86;20980;-78
2022/08/13 00:15:13;;;;;;;10.45;8.63;;;;;;;22.07;53.05;101330.46;1608266;86;20968;-78
2022/08/13 00:17:42;;;;;;;14.00;8.45;;;;;;;22.09;53.11;101329.45;1629349;86;21405;-78
2022/08/13 00:20:11;;;;;;;12.63;8.78;;;;;;;22.07;53.21;101325.19;1630541;86;21416;-78
2022/08/13 00:22:38;;;;;;;15.13;9.08;;;;;;;22.06;53.29;101316.91;1623577;86;21405;-78
2022/08/13 00:25:08;;;;;;;10.38;9.13;;;;;;;22.05;53.38;101324.42;1616489;84;25849;-78
2022/08/13 00:27:35;;;;;;;10.60;9.00;;;;;;;22.02;53.47;101318.00;1605331;86;449297;-78
2022/08/13 00:30:05;;;;;;;15.88;9.08;;;;;;;22.02;53.55;101321.48;1639900;85;20924;-78
2022/08/13 00:32:32;;;;;;;9.93;8.88;;;;;;;22.04;53.65;101312.19;1626324;87;21463;-78
2022/08/13 00:35:02;;;;;;;9.50;8.53;;;;;;;22.04;53.73;101313.50;1648405;85;21440;-78
2022/08/13 00:37:28;;;;;;;10.03;8.88;;;;;;;22.03;53.79;101306.53;1596023;88;20973;-78
2022/08/13 00:39:55;;;;;;;14.65;9.13;;;;;;;22.04;53.89;101305.59;1648281;85;21440;-78
2022/08/13 00:42:25;;;;;;;9.45;8.18;;;;;;;22.02;53.94;101307.46;1608337;87;25917;-78
2022/08/13 00:44:52;;;;;;;12.90;8.43;;;;;;;22.01;54.02;101305.30;1661518;85;21109;-78
2022/08/13 00:50:05;;;;;;;12.05;9.33;;;;;;;21.98;54.19;101296.20;1661240;85;21098;-78
2022/08/13 00:52:38;;;;;;;13.70;9.30;;;;;;;21.96;54.25;101293.27;1655967;85;21936;-78
2022/08/13 00:55:09;;;;;;;10.13;9.13;;;;;;;21.94;54.33;101297.77;1656280;85;21140;-78
2022/08/13 00:57:36;;;;;;;11.48;9.83;;;;;;;21.89;54.41;101297.15;1655950;85;22062;-78
2022/08/13 01:00:11;;;;;;;10.30;9.28;;;;;;;21.85;54.51;101291.19;1661807;85;21483;-78
2022/08/13 01:02:41;;;;;;;10.32;9.13;;;;;;;21.83;54.56;101300.98;1666735;85;21433;-78
2022/08/13 01:05:09;;;;;;;11.48;9.08;;;;;;;21.80;54.64;101303.78;1669148;85;21404;-78
2022/08/13 01:07:41;;;;;;;12.10;9.38;;;;;;;21.78;54.73;101306.95;1658756;85;21558;-79
2022/08/13 01:10:09;;;;;;;11.00;9.33;;;;;;;21.76;54.81;101311.45;1659919;84;20968;-79
2022/08/13 01:12:37;;;;;;;12.10;8.80;;;;;;;21.75;54.84;101305.33;1662237;85;21432;-78
2022/08/13 01:15:10;;;;;;;9.40;8.48;;;;;;;21.77;54.86;101311.37;1655531;85;21492;-78
2022/08/13 01:17:38;;;;;;;12.35;9.10;;;;;;;21.79;54.89;101311.29;1675906;85;21068;-78
2022/08/13 01:20:06;;;;;;;13.98;8.95;;;;;;;21.78;54.94;101301.22;1652085;85;21118;-78
2022/08/13 01:22:34;;;;;;;10.30;8.58;;;;;;;21.78;55.06;101294.64;1657511;85;21110;-78
2022/08/13 01:25:05;;;;;;;12.78;8.98;;;;;;;21.76;55.15;101280.70;1660505;85;21601;-78
2022/08/13 01:27:31;;;;;;;12.53;9.50;;;;;;;21.76;55.19;101283.80;1647283;84;21094;-78
2022/08/13 01:30:05;;;;;;;9.93;8.93;;;;;;;21.72;55.27;101284.42;1665570;84;20991;-78
2022/08/13 01:32:28;;;;;;;15.40;9.30;;;;;;;21.72;55.38;101280.48;1666474;85;21547;-78
2022/08/13 01:34:54;;;;;;;;;;;;;;;21.71;55.47;101271.34;1668389;85;21448;-78
2022/08/13 01:37:21;;;;;;;11.05;8.60;;;;;;;21.71;55.63;101264.30;1660716;85;20527;-78
2022/08/13 01:39:48;;;;;;;12.23;8.45;;;;;;;21.68;55.48;101260.51;1651167;85;21577;-78
2022/08/13 01:42:20;;;;;;;13.48;8.90;;;;;;;21.69;55.58;101260.89;1648666;85;21639;-78
2022/08/13 01:44:49;;;;;;;13.03;9.80;;;;;;;21.69;55.65;101258.72;1655356;85;21542;-78
2022/08/13 01:52:52;;;;;;;11.30;8.90;;;;;;;21.72;55.80;101258.09;1652447;85;20991;-78
2022/08/13 01:55:19;;;;;;;12.70;8.95;;;;;;;21.72;55.86;101258.09;1658948;85;21158;-78
2022/08/13 01:57:45;;;;;;;10.78;8.60;;;;;;;21.72;55.89;101259.42;1658063;83;21094;-78
2022/08/13 02:00:20;;;;;;;9.90;8.90;;;;;;;21.71;55.98;101258.18;1653468;85;21114;-78
2022/08/13 02:02:46;;;;;;;11.25;8.80;;;;;;;21.69;56.04;101266.16;1625049;85;553028;-78
2022/08/13 02:05:12;;;;;;;;;;;;;;;21.67;56.09;101261.44;1652312;85;20929;-78
2022/08/13 02:07:39;;;;;;;10.05;9.00;;;;;;;21.66;56.27;101261.05;1647321;85;20111;-78
2022/08/13 02:10:06;;;;;;;11.78;8.90;;;;;;;21.66;56.12;101268.09;1658300;85;20916;-78
2022/08/13 02:12:36;;;;;;;13.45;9.13;;;;;;;21.64;56.18;101273.44;1657977;85;20957;-78
2022/08/13 02:15:05;;;;;;;16.73;9.30;;;;;;;21.64;56.27;101266.86;1626625;86;20924;-78
2022/08/13 02:17:45;;;;;;;11.68;9.03;;;;;;;21.64;56.36;101266.86;1659946;85;20920;-78
2022/08/13 02:20:17;;;;;;;10.30;8.83;;;;;;;21.64;56.40;101268.64;1653967;85;20901;-78
2022/08/13 02:22:46;;;;;;;12.78;8.78;;;;;;;21.62;56.46;101271.81;1640982;85;21052;-78
2022/08/13 02:25:16;;;;;;;9.50;8.53;;;;;;;21.58;56.53;101270.27;1675315;85;20936;-78
2022/08/13 02:27:44;;;;;;;10.05;8.65;;;;;;;21.56;56.61;101262.45;1669671;85;20924;-78
2022/08/13 02:30:12;;;;;;;9.20;8.28;;;;;;;21.58;56.63;101265.86;1661210;85;20949;-78
2022/08/13 02:32:40;;;;;;;9.35;7.90;;;;;;;21.58;56.70;101259.74;1664923;85;20940;-78
2022/08/13 02:35:11;;;;;;;9.23;8.38;;;;;;;21.55;56.76;101255.48;1661112;85;20932;-78
2022/08/13 02:37:38;;;;;;;12.13;7.83;;;;;;;21.56;56.83;101255.88;1660892;84;20928;-78
2022/08/13 02:41:38;;;;;;;8.85;8.05;;;;;;;21.55;56.84;101251.54;1666116;84;26829;-78
2022/08/13 02:42:36;;;;;;;11.78;9.28;;;;;;;21.56;56.83;101247.13;1662674;83;21400;-78
2022/08/13 02:45:04;;;;;;;11.60;8.10;;;;;;;21.55;56.84;101238.38;1670756;83;20898;-78
2022/08/13 02:47:32;;;;;;;9.85;7.67;;;;;;;21.55;56.88;101234.90;1668022;85;20964;-78
2022/08/13 02:49:59;;;;;;;9.58;7.92;;;;;;;21.54;56.96;101230.09;1659470;84;20932;-78
2022/08/13 02:52:25;;;;;;;;;;;;;;;21.53;56.99;101234.98;1663275;85;20924;-78
2022/08/13 02:54:52;;;;;;;10.90;8.45;;;;;;;21.50;57.18;101241.71;1665089;85;20109;-78
2022/08/13 02:57:18;;;;;;;8.63;7.83;;;;;;;21.43;57.13;101236.38;1663622;85;20889;-78
2022/08/13 02:59:45;;;;;;;11.35;8.65;;;;;;;21.40;57.17;101233.91;1667695;85;20900;-78
2022/08/13 03:02:12;;;;;;;8.98;8.10;;;;;;;21.41;57.19;101231.66;1660552;85;21015;-78
2022/08/13 03:04:45;;;;;;;10.68;7.90;;;;;;;21.40;57.26;101230.80;1659902;85;21058;-78
2022/08/13 03:07:11;;;;;;;8.65;7.53;;;;;;;21.39;57.32;101228.25;1660789;85;20933;-78
2022/08/13 03:09:38;;;;;;;10.23;8.65;;;;;;;21.37;57.39;101221.75;1659510;85;21545;-78
2022/08/13 03:12:07;;;;;;;9.80;8.13;;;;;;;21.36;57.48;101225.78;1661637;85;21445;-78
2022/08/13 03:14:36;;;;;;;11.50;8.35;;;;;;;21.35;57.54;101217.03;1663273;85;20956;-78
2022/08/13 03:17:03;;;;;;;8.93;8.03;;;;;;;21.35;57.58;101218.81;1673515;85;20956;-78
2022/08/13 03:19:30;;;;;;;10.70;8.68;;;;;;;21.33;57.67;101218.89;1655736;85;26791;-78
2022/08/13 03:21:56;;;;;;;12.23;8.83;;;;;;;21.33;57.76;101216.27;1662054;85;20944;-78
2022/08/13 03:24:22;;;;;;;13.38;7.97;;;;;;;21.34;57.81;101221.06;1664856;84;20937;-78
2022/08/13 03:26:50;;;;;;;9.80;8.73;;;;;;;21.33;57.88;101216.72;1659561;85;155094;-78
2022/08/13 03:29:18;;;;;;;10.08;8.30;;;;;;;21.33;58.02;101214.95;1668686;84;20952;-78
2022/08/13 03:31:44;;;;;;;8.40;7.55;;;;;;;21.32;58.11;101213.25;1646636;85;20932;-78
2022/08/13 03:34:11;;;;;;;8.60;7.80;;;;;;;21.31;58.21;101212.04;1665770;84;20947;-78
2022/08/13 03:36:37;;;;;;;8.93;8.15;;;;;;;21.29;58.28;101208.64;1656584;85;20952;-78
2022/08/13 03:39:05;;;;;;;12.68;8.35;;;;;;;21.27;58.31;101207.86;1653421;85;20888;-78
2022/08/13 03:41:31;;;;;;;10.23;8.28;;;;;;;21.27;58.40;101204.77;1662992;85;20948;-78
2022/08/13 03:43:59;;;;;;;10.20;8.23;;;;;;;21.29;58.47;101208.64;1659666;84;21437;-78
2022/08/13 03:46:27;;;;;;;8.50;7.70;;;;;;;21.27;58.52;101206.55;1668067;85;20967;-78
2022/08/13 03:48:54;;;;;;;9.08;7.80;;;;;;;21.25;58.60;101209.72;1645621;83;670653;-78
2022/08/13 03:51:22;;;;;;;9.08;7.90;;;;;;;21.24;58.68;101209.34;1628197;85;20964;-78
2022/08/13 03:53:56;;;;;;;12.75;8.10;;;;;;;21.23;58.72;101203.22;1613957;88;21002;-78
2022/08/13 03:56:24;;;;;;;17.30;8.90;;;;;;;21.22;58.80;101205.92;1619826;87;21855;-78
2022/08/13 03:58:51;;;;;;;14.45;7.70;;;;;;;21.21;58.92;101204.20;1614790;88;20900;-78
2022/08/13 04:01:18;;;;;;;8.35;7.62;;;;;;;21.22;58.97;101209.87;1614988;87;20972;-78
2022/08/13 04:03:45;;;;;;;9.65;7.67;;;;;;;21.22;59.05;101208.09;1623419;84;26427;-78
2022/08/13 04:06:16;;;;;;;12.20;7.03;;;;;;;21.22;59.04;101203.30;1638843;86;20901;-78
2022/08/13 04:08:46;;;;;;;7.97;7.28;;;;;;;21.22;59.10;101205.47;1651025;86;21814;-78
2022/08/13 04:11:17;;;;;;;12.35;8.28;;;;;;;21.22;59.18;101203.30;1661726;86;20908;-78
2022/08/13 04:13:44;;;;;;;11.68;7.33;;;;;;;21.22;59.25;101204.61;1640461;86;20976;-78
2022/08/13 04:16:16;;;;;;;9.18;8.38;;;;;;;21.22;59.33;101200.67;1571241;88;21060;-78
2022/08/13 04:18:44;;;;;;;8.35;7.50;;;;;;;21.22;59.44;101202.84;1587879;88;20952;-78
2022/08/13 04:21:15;;;;;;;11.08;7.78;;;;;;;21.24;59.50;101197.50;1614591;87;20973;-78
2022/08/13 04:23:43;;;;;;;8.33;7.53;;;;;;;21.27;59.56;101202.60;1619584;87;20913;-78
2022/08/13 04:26:13;;;;;;;10.25;7.70;;;;;;;21.30;59.64;101195.87;1614981;87;21524;-78
2022/08/13 04:28:39;;;;;;;9.93;7.65;;;;;;;21.33;59.69;101200.48;1625162;87;21942;-78
2022/08/13 04:31:06;;;;;;;;;;;;;;;21.34;59.73;101202.18;1628423;87;20914;-78
2022/08/13 04:33:33;;;;;;;7.12;6.53;;;;;;;21.37;59.98;101199.39;1624881;86;20450;-78
2022/08/13 04:36:00;;;;;;;7.28;6.08;;;;;;;21.38;59.78;101197.61;1617818;87;20948;-78
2022/08/13 04:38:26;;;;;;;7.22;6.53;;;;;;;21.38;59.83;101196.30;1631938;87;21807;-78
2022/08/13 04:40:53;;;;;;;8.40;6.10;;;;;;;21.40;59.92;101195.75;1633426;87;21422;-78
2022/08/13 04:43:19;;;;;;;6.42;5.50;;;;;;;21.44;59.94;101191.56;1596498;88;20980;-78
2022/08/13 04:45:46;;;;;;;9.43;5.60;;;;;;;21.50;59.99;101194.81;1596235;88;20979;-78
2022/08/13 04:48:15;;;;;;;9.28;5.22;;;;;;;21.59;60.01;101196.96;1616304;87;20969;-78
2022/08/13 04:50:46;;;;;;;7.30;4.62;;;;;;;21.68;60.00;101194.70;1596139;87;21052;-78
2022/08/13 04:53:32;;;;;;;7.58;3.70;;;;;;;21.79;60.00;101188.40;1615463;87;20948;-78
2022/08/13 04:56:01;;;;;;;9.00;5.65;;;;;;;21.90;59.96;101200.11;1597057;88;20972;-78
2022/08/13 04:58:35;;;;;;;7.25;3.77;;;;;;;22.02;59.92;101196.38;1618262;87;20921;-78
2022/08/13 05:01:09;;;;;;;4.55;3.70;;;;;;;22.13;59.87;101191.84;1621163;87;20981;-78
2022/08/13 05:03:39;;;;;;;6.30;3.80;;;;;;;22.20;59.80;101191.05;1616012;87;21005;-78
2022/08/13 05:06:11;;;;;;;4.00;3.60;;;;;;;22.26;59.77;101197.30;1614163;87;21033;-78
2022/08/13 05:08:39;;;;;;;8.33;3.70;;;;;;;22.29;59.75;101201.08;1610355;87;20952;-78
2022/08/13 05:11:06;;;;;;;7.67;3.90;;;;;;;22.32;59.66;101198.27;1604187;88;20993;-78
2022/08/13 05:13:36;;;;;;;5.05;3.80;;;;;;;22.34;59.64;101196.41;1608647;88;20982;-78
2022/08/13 05:16:08;;;;;;;6.37;3.77;;;;;;;22.35;59.63;101202.05;1605334;88;20988;-78
2022/08/13 05:18:45;;;;;;;9.38;4.28;;;;;;;22.33;59.58;101203.45;1603911;88;20986;-78
2022/08/13 05:21:12;;;;;;;8.13;3.90;;;;;;;22.30;59.63;101210.22;1608213;88;20934;-78
2022/08/13 05:23:41;;;;;;;4.67;3.47;;;;;;;22.23;59.64;101207.53;1597577;88;20950;-78
2022/08/13 05:26:10;;;;;;;9.25;3.92;;;;;;;22.20;59.69;101205.53;1597915;88;20982;-79
2022/08/13 05:28:37;;;;;;;5.67;3.83;;;;;;;22.20;59.67;101200.27;1598665;88;20951;-79
2022/08/13 05:31:04;;;;;;;14.47;3.75;;;;;;;22.20;59.68;101198.48;1599656;88;20934;-79
2022/08/13 05:33:33;;;;;;;6.85;3.58;;;;;;;22.23;59.64;101200.09;1604804;88;21025;-78
2022/08/13 05:36:03;;;;;;;5.58;3.42;;;;;;;22.25;59.60;101195.12;1606524;88;20946;-78
2022/08/13 05:38:32;;;;;;;6.78;3.60;;;;;;;22.22;59.63;101195.30;1597015;88;21837;-78
2022/08/13 05:41:04;;;;;;;8.30;3.58;;;;;;;22.21;59.66;101195.38;1602017;88;20938;-80
2022/08/13 05:43:35;;;;;;;9.95;3.67;;;;;;;22.20;59.65;101188.41;1599016;88;20961;-80
2022/08/13 05:46:05;;;;;;;6.42;3.83;;;;;;;22.21;59.63;101187.01;1601024;87;20985;-78
2022/08/13 05:48:41;;;;;;;6.15;3.20;;;;;;;22.20;59.64;101195.00;1601324;88;21006;-78
2022/08/13 05:51:13;;;;;;;5.58;3.58;;;;;;;22.18;59.66;101187.64;1597645;88;21081;-78
2022/08/13 05:53:39;;;;;;;6.53;3.40;;;;;;;22.16;59.67;101194.31;1607620;88;20941;-78
2022/08/13 05:56:08;;;;;;;7.05;3.87;;;;;;;22.14;59.67;101194.86;1602602;88;21005;-78
2022/08/13 05:58:34;;;;;;;8.08;3.98;;;;;;;22.12;59.72;101192.31;1589594;88;20973;-78
2022/08/13 06:03:47;;;;;;;3.80;3.27;;;;;;;22.11;59.79;101201.61;1605752;88;20918;-77
2022/08/13 06:06:16;;;;;;;4.87;3.67;;;;;;;22.13;59.80;101197.11;1606250;87;26450;-77
2022/08/13 06:08:43;;;;;;;5.78;3.65;;;;;;;22.17;59.77;101196.48;1616193;87;21000;-80
2022/08/13 06:11:14;;;;;;;;;;;;;;;22.19;59.75;101199.41;1616792;87;20952;-80
2022/08/13 06:13:41;;;;;;;14.50;4.25;;;;;;;22.21;59.75;101194.91;1642698;86;20099;-81
2022/08/13 06:16:10;;;;;;;10.58;3.77;;;;;;;22.25;59.69;101191.64;1642572;86;20932;-81
2022/08/13 06:18:43;;;;;;;3.75;3.35;;;;;;;22.30;59.70;101189.13;1619870;87;21072;-80
2022/08/13 06:21:14;;;;;;;6.42;4.33;;;;;;;22.34;59.67;101187.17;1624715;87;21039;-80
2022/08/13 06:23:39;;;;;;;12.58;3.83;;;;;;;22.37;59.72;101190.92;1633594;87;21634;-80
2022/08/13 06:26:09;;;;;;;10.13;3.37;;;;;;;22.41;59.67;101197.73;1630482;87;20948;-80
2022/08/13 06:28:37;;;;;;;5.25;3.98;;;;;;;22.44;59.66;101196.23;1633402;87;20928;-80
2022/08/13 06:31:05;;;;;;;;;;;;;;;22.49;59.62;101193.34;1625523;87;20969;-80
2022/08/13 06:33:34;;;;;;;4.78;3.60;;;;;;;22.49;59.53;101194.20;1623899;87;20135;-80
2022/08/13 06:36:05;;;;;;;6.87;3.60;;;;;;;22.52;59.61;101199.77;1629151;87;20991;-80
2022/08/13 06:38:42;;;;;;;9.83;3.60;;;;;;;22.54;59.58;101198.73;1635437;87;20896;-80
2022/08/13 06:41:11;;;;;;;5.62;3.12;;;;;;;22.56;59.57;101195.55;1631873;87;21457;-80
2022/08/13 06:43:51;;;;;;;5.22;3.47;;;;;;;22.58;59.54;101192.36;1640954;87;20880;-80
2022/08/13 06:46:26;;;;;;;6.83;3.35;;;;;;;22.60;59.50;101185.68;1622872;87;20971;-80
2022/08/13 06:48:58;;;;;;;9.93;3.27;;;;;;;22.60;59.49;101182.58;1619282;86;20946;-81
2022/08/13 06:51:25;;;;;;;6.90;3.55;;;;;;;22.62;59.49;101182.02;1623610;87;20936;-81
2022/08/13 06:53:53;;;;;;;5.60;3.65;;;;;;;22.67;59.47;101184.39;1622325;87;20927;-81
2022/08/13 06:56:26;;;;;;;8.88;3.33;;;;;;;22.70;59.48;101189.50;1637391;86;21042;-80
2022/08/13 06:58:58;;;;;;;3.37;3.08;;;;;;;22.69;59.44;101197.02;1617319;87;21143;-80
2022/08/13 07:01:27;;;;;;;3.55;3.20;;;;;;;22.70;59.44;101196.09;1620488;86;21091;-80
2022/08/13 07:03:56;;;;;;;10.10;3.52;;;;;;;22.74;59.43;101196.30;1622366;87;21090;-80
2022/08/13 07:06:28;;;;;;;5.50;3.35;;;;;;;22.76;59.41;101193.95;1623917;87;21045;-81
2022/08/13 07:08:59;;;;;;;14.28;3.52;;;;;;;22.83;59.38;101196.27;1618224;87;21082;-77
2022/08/13 07:11:29;;;;;;;5.35;3.12;;;;;;;22.90;59.36;101197.58;1628601;87;21131;-75
2022/08/13 07:13:59;;;;;;;4.83;3.15;;;;;;;23.00;59.29;101200.06;1621816;87;21087;-78
2022/08/13 07:16:30;;;;;;;5.28;3.25;;;;;;;23.08;59.23;101199.15;1622267;86;21126;-77
2022/08/13 07:19:00;;;;;;;12.85;3.50;;;;;;;23.14;59.19;101205.38;1617560;87;21115;-79
2022/08/13 07:21:28;;;;;;;3.50;3.20;;;;;;;23.20;59.10;101213.41;1615583;87;21095;-78
2022/08/13 07:23:57;;;;;;;10.38;3.60;;;;;;;23.23;59.07;101212.76;1628438;87;21617;-79
2022/08/13 07:26:28;;;;;;;3.25;2.90;;;;;;;23.28;59.07;101209.84;1617737;87;21003;-78
2022/08/13 07:28:55;;;;;;;10.23;3.85;;;;;;;23.32;58.99;101209.57;1615950;87;21104;-78
2022/08/13 07:31:29;;;;;;;9.10;3.60;;;;;;;23.37;58.98;101208.83;1618328;87;20972;-78
2022/08/13 07:34:03;;;;;;;5.40;3.77;;;;;;;23.42;58.97;101205.41;1621847;87;20995;-77
2022/08/13 07:36:33;;;;;;;6.37;3.60;;;;;;;23.41;58.97;101205.50;1625882;87;21054;-77
2022/08/13 07:39:10;;;;;;;6.90;3.17;;;;;;;23.45;58.99;101204.38;1622123;87;21074;-81
2022/08/13 07:41:46;;;;;;;4.55;3.72;;;;;;;23.41;58.92;101201.55;1618525;87;21603;-80
2022/08/13 07:44:20;;;;;;;3.95;3.45;;;;;;;23.39;59.00;101198.18;1622478;87;21074;-79
2022/08/13 07:46:48;;;;;;;7.55;3.27;;;;;;;23.44;58.96;101202.21;1625787;87;21145;-80
2022/08/13 07:49:16;;;;;;;5.25;3.12;;;;;;;23.49;58.89;101202.41;1627990;85;21143;-79
2022/08/13 07:51:42;;;;;;;5.75;3.80;;;;;;;23.47;58.91;101206.92;1620738;87;21122;-80
2022/08/13 07:54:11;;;;;;;10.20;3.55;;;;;;;23.49;58.89;101206.36;1616287;85;21135;-81
2022/08/13 07:56:39;;;;;;;3.60;3.15;;;;;;;23.55;58.90;101208.20;1621534;87;21097;-80
2022/08/13 07:59:17;;;;;;;11.03;3.80;;;;;;;23.60;58.87;101209.23;1615518;87;21806;-79
2022/08/13 08:01:55;;;;;;;65.67;6.65;;;;;;;23.66;58.81;101211.50;1620463;87;21123;-83
2022/08/13 08:04:24;;;;;;;15.53;3.72;;;;;;;23.75;58.88;101203.02;1618918;87;21011;-78
2022/08/13 08:06:51;;;;;;;6.72;3.95;;;;;;;23.95;58.87;101203.92;1615894;87;20953;-81
2022/08/13 08:09:19;;;;;;;;;;;;;;;24.25;58.84;101199.86;1607935;87;21119;-81
2022/08/13 08:14:34;;;;;;;5.47;3.15;;;;;;;24.77;58.50;101203.07;1608057;87;21114;-81
2022/08/13 08:17:04;;;;;;;13.08;3.60;;;;;;;24.86;58.41;101205.11;1611993;87;21117;-82
2022/08/13 08:19:31;;;;;;;7.17;3.77;;;;;;;24.97;58.28;101207.89;1610073;87;21179;-81
2022/08/13 08:22:04;;;;;;;6.05;3.65;;;;;;;24.97;58.05;101216.30;1609596;87;21053;-81
2022/08/13 08:24:32;;;;;;;6.47;3.30;;;;;;;24.94;58.08;101216.03;1572664;89;21450;-81
2022/08/13 08:27:03;;;;;;;11.48;3.95;;;;;;;24.98;57.98;101212.23;1605367;87;21099;-81
2022/08/13 08:29:31;;;;;;;4.62;3.65;;;;;;;25.03;57.93;101214.09;1605381;87;21090;-82
2022/08/13 08:31:59;;;;;;;5.05;3.62;;;;;;;25.11;58.03;101198.19;1581354;89;21144;-82
2022/08/13 08:34:27;;;;;;;8.98;3.70;;;;;;;25.11;58.03;101198.19;1606267;87;21012;-82
2022/08/13 08:36:55;;;;;;;3.60;3.27;;;;;;;25.33;57.60;101205.89;1608898;87;21040;-82
2022/08/13 08:44:57;;;;;;;4.10;3.70;;;;;;;25.48;57.23;101207.94;1598504;87;21059;-79
2022/08/13 08:47:33;;;;;;;5.45;4.47;;;;;;;25.60;57.18;101206.24;1613642;87;21552;-79
2022/08/13 08:50:00;;;;;;;4.35;3.45;;;;;;;25.70;57.03;101204.20;1609479;87;21505;-79
2022/08/13 08:53:19;;;;;;;9.23;4.25;;;;;;;25.75;56.91;101201.71;1608650;88;21455;-79
2022/08/13 08:54:56;;;;;;;4.55;3.30;;;;;;;25.87;56.73;101194.23;1607634;86;20961;-80
2022/08/13 08:57:22;;;;;;;8.15;3.62;;;;;;;25.97;56.58;101200.57;1608038;88;21446;-80
2022/08/13 08:59:49;;;;;;;6.80;3.02;;;;;;;26.03;56.28;101196.13;1604185;88;28550;-79
2022/08/13 09:02:22;;;;;;;7.17;3.42;;;;;;;26.05;56.26;101199.52;1610418;88;21430;-79
2022/08/13 09:04:54;;;;;;;3.35;3.05;;;;;;;26.16;56.14;101188.14;1589045;88;20969;-79
2022/08/13 09:07:18;;;;;;;5.45;3.25;;;;;;;26.28;55.97;101188.59;1607570;86;20976;-80
2022/08/13 09:09:46;;;;;;;4.65;3.20;;;;;;;26.34;55.80;101187.69;1603648;88;21464;-79
2022/08/13 09:12:13;;;;;;;4.90;3.20;;;;;;;26.46;55.68;101189.08;1603314;88;20940;-79
2022/08/13 09:14:40;;;;;;;44.67;5.97;;;;;;;26.54;55.48;101188.86;1603407;88;21401;-77
2022/08/13 09:17:07;;;;;;;8.03;3.50;;;;;;;26.59;55.38;101185.87;1628725;86;20954;-79
2022/08/13 09:19:34;;;;;;;6.08;3.55;;;;;;;26.64;55.21;101185.05;1630516;86;20964;-79
2022/08/13 09:22:02;;;;;;;10.03;3.10;;;;;;;26.64;55.08;101185.05;1637673;86;21452;-80
2022/08/13 09:24:28;;;;;;;4.10;3.20;;;;;;;26.69;54.95;101176.27;1645929;86;21016;-80
2022/08/13 09:26:56;;;;;;;5.42;3.20;;;;;;;26.77;54.82;101183.17;1595928;88;21615;-77
2022/08/13 09:29:23;;;;;;;6.50;3.37;;;;;;;26.84;54.68;101177.78;1592522;88;21690;-80
2022/08/13 09:31:55;;;;;;;6.70;3.00;;;;;;;26.88;54.37;101176.58;1596806;88;21564;-79
2022/08/13 09:34:19;;;;;;;6.78;2.85;;;;;;;26.90;54.29;101172.48;1594334;88;21699;-78
2022/08/13 09:36:47;;;;;;;6.95;2.67;;;;;;;26.96;54.12;101174.71;1589231;88;21087;-80
2022/08/13 09:39:18;;;;;;;10.13;2.72;;;;;;;26.99;53.91;101169.17;1573889;89;21742;-78
2022/08/13 09:41:50;;;;;;;4.75;3.42;;;;;;;27.07;53.85;101175.19;1602205;87;21631;-79
2022/08/13 09:44:17;;;;;;;5.10;2.70;;;;;;;27.17;53.62;101171.72;1589587;88;21646;-79
2022/08/13 09:46:45;;;;;;;7.50;2.85;;;;;;;27.28;53.50;101173.55;1590753;88;21437;-78
2022/08/13 09:49:12;;;;;;;7.78;2.42;;;;;;;27.41;53.30;101178.28;1585979;88;21835;-78
2022/08/13 09:51:39;;;;;;;3.85;2.20;;;;;;;27.52;53.06;101182.76;1588621;88;21441;-81
2022/08/13 09:54:07;;;;;;;;;;;;;;;27.62;52.92;101173.95;1583761;89;21523;-79
2022/08/13 09:56:39;;;;;;;2.58;2.37;;;;;;;27.73;52.68;101168.27;1585455;89;20573;-81
2022/08/13 09:59:10;;;;;;;6.92;2.40;;;;;;;27.88;52.64;101168.39;1586255;88;22129;-80
2022/08/13 10:01:38;;;;;;;6.50;2.67;;;;;;;28.00;52.41;101156.77;1582823;88;21064;-80
2022/08/13 10:04:05;;;;;;;8.65;2.12;;;;;;;28.11;52.21;101156.72;1588643;88;21637;-82
2022/08/13 10:06:32;;;;;;;;;;;;;;;28.23;52.17;101157.58;1588908;88;22157;-80
2022/08/13 10:09:02;;;;;;;6.20;2.50;;;;;;;28.32;51.17;101160.81;1582604;88;20193;-84
2022/08/13 10:11:28;;;;;;;4.42;2.12;;;;;;;28.33;51.68;101150.05;1587751;88;21584;-81
2022/08/13 10:13:55;;;;;;;;;;;;;;;28.39;51.50;101141.20;1586082;88;21646;-79
2022/08/13 10:16:23;;;;;;;5.45;2.22;;;;;;;28.46;51.14;101137.07;1586398;88;20551;-80
2022/08/13 10:18:50;;;;;;;4.65;2.12;;;;;;;28.54;51.15;101133.29;1586255;88;21127;-79
2022/08/13 10:21:16;;;;;;;6.58;2.10;;;;;;;28.59;50.96;101131.09;1583559;88;21620;-79
2022/08/13 10:23:43;;;;;;;2.52;2.22;;;;;;;28.65;50.73;101130.55;1592857;88;21642;-79
2022/08/13 10:26:09;;;;;;;4.42;2.10;;;;;;;28.72;50.46;101131.72;1588255;88;21090;-79
2022/08/13 10:28:36;;;;;;;163.52;11.65;;;;;;;28.73;49.97;101139.22;1583402;88;21127;-78
2022/08/13 10:31:07;;;;;;;34.98;4.08;;;;;;;28.67;49.95;101132.59;1586913;88;21120;-78
2022/08/13 10:33:37;;;;;;;24.70;2.85;;;;;;;28.70;49.80;101131.01;1587690;88;21452;-78
2022/08/13 10:36:06;;;;;;;5.55;2.17;;;;;;;28.73;49.64;101134.74;1585433;88;21150;-78
2022/08/13 10:38:34;;;;;;;12.88;2.55;;;;;;;28.75;49.41;101129.29;1612651;86;22074;-78
2022/08/13 10:41:07;;;;;;;6.15;2.20;;;;;;;28.77;48.80;101139.33;1620716;86;21408;-78
2022/08/13 10:43:31;;;;;;;3.85;2.37;;;;;;;28.77;48.84;101132.67;1619179;86;21407;-78
2022/08/13 10:45:59;;;;;;;7.67;2.47;;;;;;;28.81;48.74;101135.43;1614060;86;20932;-78
2022/08/13 10:48:27;;;;;;;6.03;2.20;;;;;;;28.75;48.29;101117.31;1614915;86;21361;-78
2022/08/13 10:50:55;;;;;;;4.37;2.35;;;;;;;28.78;48.35;101115.23;1617191;86;20931;-78
2022/08/13 10:56:09;;;;;;;6.53;2.40;;;;;;;28.89;47.75;101113.88;1614864;86;20935;-78
2022/08/13 10:58:36;;;;;;;112.65;7.83;;;;;;;28.82;47.08;101103.39;1615874;86;20927;-78
2022/08/13 11:01:07;;;;;;;6.58;2.80;;;;;;;28.83;47.42;101109.55;1605776;87;25144;-81
2022/08/13 11:03:33;;;;;;;8.10;3.00;;;;;;;28.84;47.37;101112.09;1617483;86;20920;-81
2022/08/13 11:06:03;;;;;;;4.87;2.95;;;;;;;28.85;46.86;101115.59;1619317;86;20971;-81
2022/08/13 11:08:40;;;;;;;2.80;2.60;;;;;;;28.75;46.48;101106.17;1612727;86;21051;-81
2022/08/13 11:11:09;;;;;;;5.08;2.83;;;;;;;28.74;46.85;101103.64;1609185;87;20893;-79
2022/08/13 11:13:37;;;;;;;8.70;2.92;;;;;;;28.76;46.86;101106.53;1609696;87;20957;-79
2022/08/13 11:16:56;;;;;;;9.23;3.15;;;;;;;28.83;46.78;101094.91;1609413;87;20959;-79
2022/08/13 11:18:39;;;;;;;6.22;2.98;;;;;;;28.84;46.72;101086.80;1611424;87;20976;-80
2022/08/13 11:21:10;;;;;;;5.05;2.98;;;;;;;28.87;46.58;101083.03;1612499;87;21058;-81
2022/08/13 11:23:36;;;;;;;4.22;3.08;;;;;;;28.86;46.59;101078.19;1610623;86;21095;-79
2022/08/13 11:26:03;;;;;;;;;;;;;;;28.93;46.68;101084.69;1611322;87;21082;-81
2022/08/13 11:28:29;;;;;;;;;;;;;;;28.94;46.45;101081.05;1603819;87;20273;-80
2022/08/13 11:30:56;;;;;;;;;;;;;;;28.94;46.27;101075.72;1610564;87;20261;-80
2022/08/13 11:33:25;;;;;;;10.03;3.65;;;;;;;28.91;46.07;101071.14;1609757;87;20461;-80
2022/08/13 11:35:54;;;;;;;3.98;3.60;;;;;;;28.85;46.41;101075.17;1610638;87;21098;-80
2022/08/13 11:38:22;;;;;;;4.83;3.70;;;;;;;28.79;46.18;101075.66;1610159;87;21154;-80
2022/08/13 11:40:53;;;;;;;7.65;3.55;;;;;;;28.73;46.25;101076.19;1607467;87;21116;-83
2022/08/13 11:43:26;;;;;;;6.17;3.77;;;;;;;28.68;46.26;101077.91;1613905;87;20975;-81
2022/08/13 11:45:53;;;;;;;10.35;3.45;;;;;;;28.70;46.30;101067.13;1610358;87;21094;-80
2022/08/13 11:48:21;;;;;;;8.38;3.30;;;;;;;28.79;46.26;101070.83;1613101;87;21191;-79
2022/08/13 11:50:48;;;;;;;8.03;3.47;;;;;;;28.85;46.27;101070.34;1607700;87;21094;-83
2022/08/13 11:53:15;;;;;;;4.95;3.65;;;;;;;28.92;46.22;101066.17;1611027;87;21158;-77
2022/08/13 11:55:41;;;;;;;;;;;;;;;28.93;46.11;101058.05;1615295;87;21003;-77
2022/08/13 11:58:09;;;;;;;6.20;3.35;;;;;;;29.01;46.15;101057.89;1610292;87;28365;-77
2022/08/13 12:00:37;;;;;;;4.40;3.72;;;;;;;29.07;46.14;101064.02;1611775;85;21133;-77